sensor_id;sensor_type;location;lat;lon;timestamp;pressure;altitude;pressure_sealevel;temperature;humidity
63568;BME280;49715;42.386;20.434;2022-10-22T00:00:17;98166.19;;;7.56;69.12
63568;BME280;49715;42.386;20.434;2022-10-22T00:02:44;98184.06;;;7.51;69.14
63568;BME280;49715;42.386;20.434;2022-10-22T00:05:10;98178.56;;;7.42;69.53
63568;BME280;49715;42.386;20.434;2022-10-22T00:07:36;98171.75;;;7.40;69.31
63568;BME280;49715;42.386;20.434;2022-10-22T00:10:04;98167.50;;;7.26;69.38
63568;BME280;49715;42.386;20.434;2022-10-22T00:12:31;98179.91;;;7.24;69.53
63568;BME280;49715;42.386;20.434;2022-10-22T00:14:57;98171.97;;;7.13;69.54
63568;BME280;49715;42.386;20.434;2022-10-22T00:17:24;98177.44;;;7.10;69.60
63568;BME280;49715;42.386;20.434;2022-10-22T00:19:50;98186.34;;;7.07;69.88
63568;BME280;49715;42.386;20.434;2022-10-22T00:22:16;98171.81;;;7.03;69.64
63568;BME280;49715;42.386;20.434;2022-10-22T00:24:43;98172.41;;;7.07;69.94
63568;BME280;49715;42.386;20.434;2022-10-22T00:27:10;98174.69;;;7.11;69.87
63568;BME280;49715;42.386;20.434;2022-10-22T00:29:37;98162.53;;;7.10;69.77
63568;BME280;49715;42.386;20.434;2022-10-22T00:32:04;98161.16;;;7.17;69.93
63568;BME280;49715;42.386;20.434;2022-10-22T00:34:30;98148.16;;;7.16;69.89
63568;BME280;49715;42.386;20.434;2022-10-22T00:36:57;98147.59;;;7.23;69.75
63568;BME280;49715;42.386;20.434;2022-10-22T00:39:25;98142.97;;;7.27;69.67
63568;BME280;49715;42.386;20.434;2022-10-22T00:41:54;98149.97;;;7.27;69.51
63568;BME280;49715;42.386;20.434;2022-10-22T00:47:27;98134.75;;;7.32;69.53
63568;BME280;49715;42.386;20.434;2022-10-22T00:49:54;98139.06;;;7.33;69.52
63568;BME280;49715;42.386;20.434;2022-10-22T00:52:21;98143.97;;;7.37;69.31
63568;BME280;49715;42.386;20.434;2022-10-22T00:54:49;98140.47;;;7.37;69.49
63568;BME280;49715;42.386;20.434;2022-10-22T00:57:16;98131.44;;;7.41;69.24
63568;BME280;49715;42.386;20.434;2022-10-22T00:59:45;98138.47;;;7.40;69.45
63568;BME280;49715;42.386;20.434;2022-10-22T01:02:11;98134.69;;;7.44;69.47
63568;BME280;49715;42.386;20.434;2022-10-22T01:04:39;98134.69;;;7.44;69.23
63568;BME280;49715;42.386;20.434;2022-10-22T01:07:05;98128.72;;;7.42;70.31
63568;BME280;49715;42.386;20.434;2022-10-22T01:09:39;98123.38;;;7.44;69.22
63568;BME280;49715;42.386;20.434;2022-10-22T01:15:16;98116.22;;;7.46;69.33
63568;BME280;49715;42.386;20.434;2022-10-22T01:31:34;98113.06;;;7.30;68.96
63568;BME280;49715;42.386;20.434;2022-10-22T01:34:02;98109.31;;;7.21;69.06
63568;BME280;49715;42.386;20.434;2022-10-22T01:36:30;98116.59;;;7.17;69.04
63568;BME280;49715;42.386;20.434;2022-10-22T01:38:59;98114.84;;;7.05;69.22
63568;BME280;49715;42.386;20.434;2022-10-22T01:41:28;98112.44;;;7.02;69.41
63568;BME280;49715;42.386;20.434;2022-10-22T01:43:55;98111.84;;;6.99;69.56
63568;BME280;49715;42.386;20.434;2022-10-22T01:46:23;98114.91;;;6.92;69.50
63568;BME280;49715;42.386;20.434;2022-10-22T01:49:15;98105.38;;;6.91;69.58
63568;BME280;49715;42.386;20.434;2022-10-22T01:57:05;98101.09;;;6.90;69.76
63568;BME280;49715;42.386;20.434;2022-10-22T01:59:43;98093.56;;;6.86;69.79
63568;BME280;49715;42.386;20.434;2022-10-22T02:02:37;98098.47;;;6.90;69.59
63568;BME280;49715;42.386;20.434;2022-10-22T02:05:18;98105.16;;;6.94;69.93
63568;BME280;49715;42.386;20.434;2022-10-22T02:07:51;98099.78;;;6.96;69.79
63568;BME280;49715;42.386;20.434;2022-10-22T02:10:20;98093.59;;;6.97;69.78
63568;BME280;49715;42.386;20.434;2022-10-22T02:12:49;98105.88;;;6.96;69.71
63568;BME280;49715;42.386;20.434;2022-10-22T02:15:18;98099.59;;;6.99;69.71
63568;BME280;49715;42.386;20.434;2022-10-22T02:17:46;98086.94;;;6.93;69.83
63568;BME280;49715;42.386;20.434;2022-10-22T02:20:21;98095.06;;;7.01;69.73
63568;BME280;49715;42.386;20.434;2022-10-22T02:22:49;98090.06;;;6.98;69.64
63568;BME280;49715;42.386;20.434;2022-10-22T02:25:15;98094.00;;;7.04;69.83
63568;BME280;49715;42.386;20.434;2022-10-22T02:27:45;98087.94;;;7.03;69.68
63568;BME280;49715;42.386;20.434;2022-10-22T02:30:16;98096.50;;;7.05;69.54
63568;BME280;49715;42.386;20.434;2022-10-22T02:35:33;98094.09;;;7.02;69.50
63568;BME280;49715;42.386;20.434;2022-10-22T02:38:01;98102.22;;;6.99;69.53
63568;BME280;49715;42.386;20.434;2022-10-22T02:40:29;98103.38;;;6.95;69.45
63568;BME280;49715;42.386;20.434;2022-10-22T02:42:56;98095.13;;;6.88;69.58
63568;BME280;49715;42.386;20.434;2022-10-22T02:45:22;98097.75;;;6.88;69.50
63568;BME280;49715;42.386;20.434;2022-10-22T02:47:49;98113.22;;;6.91;69.48
63568;BME280;49715;42.386;20.434;2022-10-22T02:50:15;98107.50;;;6.86;69.61
63568;BME280;49715;42.386;20.434;2022-10-22T02:52:42;98103.91;;;6.87;69.73
63568;BME280;49715;42.386;20.434;2022-10-22T02:55:08;98112.59;;;6.88;69.44
63568;BME280;49715;42.386;20.434;2022-10-22T02:57:35;98107.59;;;6.85;69.50
63568;BME280;49715;42.386;20.434;2022-10-22T03:00:04;98106.66;;;6.86;69.43
63568;BME280;49715;42.386;20.434;2022-10-22T03:02:31;98114.63;;;6.84;69.59
63568;BME280;49715;42.386;20.434;2022-10-22T03:04:57;98101.03;;;6.79;69.50
63568;BME280;49715;42.386;20.434;2022-10-22T03:07:23;98110.56;;;6.80;69.61
63568;BME280;49715;42.386;20.434;2022-10-22T03:09:50;98102.19;;;6.75;69.37
63568;BME280;49715;42.386;20.434;2022-10-22T03:12:16;98115.50;;;6.72;69.66
63568;BME280;49715;42.386;20.434;2022-10-22T03:14:42;98109.75;;;6.67;69.81
63568;BME280;49715;42.386;20.434;2022-10-22T03:17:09;98106.88;;;6.59;69.74
63568;BME280;49715;42.386;20.434;2022-10-22T03:19:35;98117.44;;;6.57;69.83
63568;BME280;49715;42.386;20.434;2022-10-22T03:22:05;98125.59;;;6.53;69.91
63568;BME280;49715;42.386;20.434;2022-10-22T03:24:40;98120.81;;;6.47;69.80
63568;BME280;49715;42.386;20.434;2022-10-22T03:27:08;98105.53;;;6.40;69.86
63568;BME280;49715;42.386;20.434;2022-10-22T03:29:37;98128.03;;;6.43;69.89
63568;BME280;49715;42.386;20.434;2022-10-22T03:32:04;98116.09;;;6.39;70.37
63568;BME280;49715;42.386;20.434;2022-10-22T03:34:31;98129.19;;;6.39;70.23
63568;BME280;49715;42.386;20.434;2022-10-22T03:36:58;98126.69;;;6.37;70.10
63568;BME280;49715;42.386;20.434;2022-10-22T03:39:28;98116.53;;;6.33;70.05
63568;BME280;49715;42.386;20.434;2022-10-22T03:41:56;98111.31;;;6.33;70.26
63568;BME280;49715;42.386;20.434;2022-10-22T03:44:23;98107.22;;;6.29;70.38
63568;BME280;49715;42.386;20.434;2022-10-22T03:46:50;98109.22;;;6.25;70.52
63568;BME280;49715;42.386;20.434;2022-10-22T03:49:16;98125.47;;;6.30;70.19
63568;BME280;49715;42.386;20.434;2022-10-22T03:51:43;98130.56;;;6.32;70.53
63568;BME280;49715;42.386;20.434;2022-10-22T03:54:09;98139.25;;;6.32;70.33
63568;BME280;49715;42.386;20.434;2022-10-22T03:56:36;98145.97;;;6.36;70.54
63568;BME280;49715;42.386;20.434;2022-10-22T03:59:02;98143.34;;;6.36;70.26
63568;BME280;49715;42.386;20.434;2022-10-22T04:01:29;98140.84;;;6.35;70.22
63568;BME280;49715;42.386;20.434;2022-10-22T04:03:56;98137.47;;;6.33;70.29
63568;BME280;49715;42.386;20.434;2022-10-22T04:06:23;98136.75;;;6.31;71.34
63568;BME280;49715;42.386;20.434;2022-10-22T04:08:50;98139.25;;;6.32;70.55
63568;BME280;49715;42.386;20.434;2022-10-22T04:11:16;98134.88;;;6.33;70.45
63568;BME280;49715;42.386;20.434;2022-10-22T04:13:43;98135.50;;;6.36;70.23
63568;BME280;49715;42.386;20.434;2022-10-22T04:16:14;98127.53;;;6.38;70.15
63568;BME280;49715;42.386;20.434;2022-10-22T04:18:41;98117.28;;;6.35;70.22
63568;BME280;49715;42.386;20.434;2022-10-22T04:21:10;98128.34;;;6.38;70.33
63568;BME280;49715;42.386;20.434;2022-10-22T04:23:37;98132.56;;;6.41;70.30
63568;BME280;49715;42.386;20.434;2022-10-22T04:26:06;98128.16;;;6.41;70.32
63568;BME280;49715;42.386;20.434;2022-10-22T04:28:33;98137.69;;;6.42;70.37
63568;BME280;49715;42.386;20.434;2022-10-22T04:31:06;98143.88;;;6.41;70.56
63568;BME280;49715;42.386;20.434;2022-10-22T04:33:33;98134.53;;;6.37;70.61
63568;BME280;49715;42.386;20.434;2022-10-22T04:35:59;98130.97;;;6.38;70.59
63568;BME280;49715;42.386;20.434;2022-10-22T04:38:30;98139.34;;;6.43;70.63
63568;BME280;49715;42.386;20.434;2022-10-22T04:40:57;98130.66;;;6.43;70.72
63568;BME280;49715;42.386;20.434;2022-10-22T04:43:23;98134.84;;;6.45;70.78
63568;BME280;49715;42.386;20.434;2022-10-22T04:45:49;98137.16;;;6.50;70.82
63568;BME280;49715;42.386;20.434;2022-10-22T04:48:16;98126.44;;;6.53;70.56
63568;BME280;49715;42.386;20.434;2022-10-22T04:50:42;98129.56;;;6.58;70.80
63568;BME280;49715;42.386;20.434;2022-10-22T04:53:08;98125.91;;;6.61;70.65
63568;BME280;49715;42.386;20.434;2022-10-22T04:55:35;98128.53;;;6.61;70.58
63568;BME280;49715;42.386;20.434;2022-10-22T04:58:01;98124.66;;;6.54;70.56
63568;BME280;49715;42.386;20.434;2022-10-22T05:00:27;98127.28;;;6.54;70.74
63568;BME280;49715;42.386;20.434;2022-10-22T05:02:54;98118.00;;;6.50;70.64
63568;BME280;49715;42.386;20.434;2022-10-22T05:05:20;98116.41;;;6.47;70.92
63568;BME280;49715;42.386;20.434;2022-10-22T05:07:46;98122.59;;;6.46;70.76
63568;BME280;49715;42.386;20.434;2022-10-22T05:10:13;98122.19;;;6.39;70.51
63568;BME280;49715;42.386;20.434;2022-10-22T05:12:39;98125.03;;;6.36;70.96
63568;BME280;49715;42.386;20.434;2022-10-22T05:15:06;98129.44;;;6.36;71.16
63568;BME280;49715;42.386;20.434;2022-10-22T05:17:36;98124.28;;;6.34;71.27
63568;BME280;49715;42.386;20.434;2022-10-22T05:20:03;98139.66;;;6.39;71.20
63568;BME280;49715;42.386;20.434;2022-10-22T05:22:30;98146.38;;;6.43;71.33
63568;BME280;49715;42.386;20.434;2022-10-22T05:24:58;98135.56;;;6.48;71.45
63568;BME280;49715;42.386;20.434;2022-10-22T05:27:25;98141.13;;;6.56;71.55
63568;BME280;49715;42.386;20.434;2022-10-22T05:29:51;98136.38;;;6.61;71.65
63568;BME280;49715;42.386;20.434;2022-10-22T05:32:18;98140.47;;;6.65;71.89
63568;BME280;49715;42.386;20.434;2022-10-22T05:34:44;98145.28;;;6.71;71.85
63568;BME280;49715;42.386;20.434;2022-10-22T05:37:11;98156.06;;;6.79;71.75
63568;BME280;49715;42.386;20.434;2022-10-22T05:39:37;98141.78;;;6.83;71.37
63568;BME280;49715;42.386;20.434;2022-10-22T05:42:05;98159.34;;;6.94;71.54
63568;BME280;49715;42.386;20.434;2022-10-22T05:44:32;98165.00;;;7.01;71.37
63568;BME280;49715;42.386;20.434;2022-10-22T05:46:58;98152.19;;;7.09;71.44
63568;BME280;49715;42.386;20.434;2022-10-22T05:49:25;98148.97;;;7.16;71.38
63568;BME280;49715;42.386;20.434;2022-10-22T05:51:51;98151.78;;;7.26;71.18
63568;BME280;49715;42.386;20.434;2022-10-22T05:54:19;98156.34;;;7.35;70.92
63568;BME280;49715;42.386;20.434;2022-10-22T05:56:47;98148.63;;;7.45;71.21
63568;BME280;49715;42.386;20.434;2022-10-22T05:59:14;98159.28;;;7.55;71.07
63568;BME280;49715;42.386;20.434;2022-10-22T06:01:40;98151.81;;;7.61;71.11
63568;BME280;49715;42.386;20.434;2022-10-22T06:04:10;98156.25;;;7.72;70.99
63568;BME280;49715;42.386;20.434;2022-10-22T06:06:48;98157.31;;;7.81;70.71
63568;BME280;49715;42.386;20.434;2022-10-22T06:09:21;98148.75;;;7.90;70.72
63568;BME280;49715;42.386;20.434;2022-10-22T06:11:49;98156.19;;;7.96;70.49
63568;BME280;49715;42.386;20.434;2022-10-22T06:14:17;98163.25;;;7.95;70.36
63568;BME280;49715;42.386;20.434;2022-10-22T06:16:43;98173.00;;;8.05;70.31
63568;BME280;49715;42.386;20.434;2022-10-22T06:19:11;98167.41;;;8.09;70.41
63568;BME280;49715;42.386;20.434;2022-10-22T06:21:39;98164.09;;;8.07;70.20
63568;BME280;49715;42.386;20.434;2022-10-22T06:24:06;98182.34;;;8.09;70.24
63568;BME280;49715;42.386;20.434;2022-10-22T06:26:32;98192.00;;;8.08;70.27
63568;BME280;49715;42.386;20.434;2022-10-22T06:28:59;98177.44;;;8.04;70.23
63568;BME280;49715;42.386;20.434;2022-10-22T06:31:26;98201.81;;;8.06;70.22
63568;BME280;49715;42.386;20.434;2022-10-22T06:33:53;98210.13;;;8.00;70.68
63568;BME280;49715;42.386;20.434;2022-10-22T06:36:23;98184.25;;;8.07;70.55
63568;BME280;49715;42.386;20.434;2022-10-22T06:38:51;98180.31;;;8.12;70.38
63568;BME280;49715;42.386;20.434;2022-10-22T06:41:18;98165.28;;;8.14;70.21
63568;BME280;49715;42.386;20.434;2022-10-22T06:43:45;98165.19;;;8.16;70.29
63568;BME280;49715;42.386;20.434;2022-10-22T06:46:19;98176.88;;;8.23;70.44
63568;BME280;49715;42.386;20.434;2022-10-22T06:48:50;98179.16;;;8.27;70.13
63568;BME280;49715;42.386;20.434;2022-10-22T06:51:18;98176.78;;;8.36;70.29
63568;BME280;49715;42.386;20.434;2022-10-22T06:53:44;98169.50;;;8.39;70.40
63568;BME280;49715;42.386;20.434;2022-10-22T06:56:18;98169.88;;;8.46;70.37
63568;BME280;49715;42.386;20.434;2022-10-22T06:58:53;98174.44;;;8.55;70.05
63568;BME280;49715;42.386;20.434;2022-10-22T07:01:22;98161.84;;;8.59;70.08
63568;BME280;49715;42.386;20.434;2022-10-22T07:03:49;98164.38;;;8.71;69.87
63568;BME280;49715;42.386;20.434;2022-10-22T07:06:17;98174.41;;;8.77;69.81
63568;BME280;49715;42.386;20.434;2022-10-22T07:08:43;98158.06;;;8.74;70.43
63568;BME280;49715;42.386;20.434;2022-10-22T07:11:19;98151.34;;;8.81;69.96
63568;BME280;49715;42.386;20.434;2022-10-22T07:13:46;98146.06;;;8.92;69.66
63568;BME280;49715;42.386;20.434;2022-10-22T07:16:14;98119.19;;;8.89;69.69
63568;BME280;49715;42.386;20.434;2022-10-22T07:18:41;98142.59;;;9.03;69.66
63568;BME280;49715;42.386;20.434;2022-10-22T07:21:08;98183.91;;;9.12;69.54
63568;BME280;49715;42.386;20.434;2022-10-22T07:23:35;98193.84;;;9.09;69.46
63568;BME280;49715;42.386;20.434;2022-10-22T07:26:03;98173.88;;;9.06;69.33
63568;BME280;49715;42.386;20.434;2022-10-22T07:28:36;98188.69;;;9.18;69.50
63568;BME280;49715;42.386;20.434;2022-10-22T07:31:09;98194.41;;;9.23;69.52
63568;BME280;49715;42.386;20.434;2022-10-22T07:33:37;98181.97;;;9.25;69.52
63568;BME280;49715;42.386;20.434;2022-10-22T07:36:06;98197.69;;;9.37;69.42
63568;BME280;49715;42.386;20.434;2022-10-22T07:38:34;98190.88;;;9.45;69.51
63568;BME280;49715;42.386;20.434;2022-10-22T07:41:00;98199.50;;;9.47;69.41
63568;BME280;49715;42.386;20.434;2022-10-22T07:43:27;98201.41;;;9.45;69.93
63568;BME280;49715;42.386;20.434;2022-10-22T07:45:54;98192.88;;;9.53;69.38
63568;BME280;49715;42.386;20.434;2022-10-22T07:48:24;98177.41;;;9.60;69.35
63568;BME280;49715;42.386;20.434;2022-10-22T07:50:51;98184.06;;;9.75;69.32
63568;BME280;49715;42.386;20.434;2022-10-22T07:53:17;98178.03;;;9.84;69.24
63568;BME280;49715;42.386;20.434;2022-10-22T07:55:47;98191.25;;;9.94;69.34
63568;BME280;49715;42.386;20.434;2022-10-22T07:58:14;98178.28;;;10.02;69.36
63568;BME280;49715;42.386;20.434;2022-10-22T08:00:40;98182.53;;;10.14;69.47
63568;BME280;49715;42.386;20.434;2022-10-22T08:03:09;98178.63;;;10.29;69.18
63568;BME280;49715;42.386;20.434;2022-10-22T08:05:36;98162.16;;;10.37;69.52
63568;BME280;49715;42.386;20.434;2022-10-22T08:08:05;98175.63;;;10.65;69.29
63568;BME280;49715;42.386;20.434;2022-10-22T08:10:32;98174.28;;;10.80;69.38
63568;BME280;49715;42.386;20.434;2022-10-22T08:12:58;98178.50;;;11.02;68.85
63568;BME280;49715;42.386;20.434;2022-10-22T08:15:25;98168.38;;;11.17;68.69
63568;BME280;49715;42.386;20.434;2022-10-22T08:17:52;98170.09;;;11.18;68.50
63568;BME280;49715;42.386;20.434;2022-10-22T08:20:18;98168.13;;;11.29;68.47
63568;BME280;49715;42.386;20.434;2022-10-22T08:22:44;98156.47;;;11.42;68.32
63568;BME280;49715;42.386;20.434;2022-10-22T08:25:11;98152.59;;;11.55;67.88
63568;BME280;49715;42.386;20.434;2022-10-22T08:27:40;98153.00;;;11.70;67.50
63568;BME280;49715;42.386;20.434;2022-10-22T08:30:07;98153.75;;;11.82;67.42
63568;BME280;49715;42.386;20.434;2022-10-22T08:32:33;98148.97;;;11.85;67.34
63568;BME280;49715;42.386;20.434;2022-10-22T08:35:00;98152.75;;;11.93;67.15
63568;BME280;49715;42.386;20.434;2022-10-22T08:37:26;98155.13;;;11.96;66.76
63568;BME280;49715;42.386;20.434;2022-10-22T08:39:53;98159.28;;;11.98;66.59
63568;BME280;49715;42.386;20.434;2022-10-22T08:45:10;98154.78;;;12.08;66.19
63568;BME280;49715;42.386;20.434;2022-10-22T08:50:48;98149.59;;;12.36;66.07
63568;BME280;49715;42.386;20.434;2022-10-22T08:53:20;98152.03;;;12.47;66.30
63568;BME280;49715;42.386;20.434;2022-10-22T08:55:52;98149.81;;;12.52;65.98
63568;BME280;49715;42.386;20.434;2022-10-22T08:58:44;98139.63;;;12.57;66.01
63568;BME280;49715;42.386;20.434;2022-10-22T09:01:14;98138.78;;;12.57;65.79
63568;BME280;49715;42.386;20.434;2022-10-22T09:06:20;98141.22;;;12.68;65.77
63568;BME280;49715;42.386;20.434;2022-10-22T09:08:48;98151.38;;;12.73;65.70
63568;BME280;49715;42.386;20.434;2022-10-22T09:13:45;98139.53;;;12.77;65.66
63568;BME280;49715;42.386;20.434;2022-10-22T09:16:24;98133.66;;;12.83;65.76
63568;BME280;49715;42.386;20.434;2022-10-22T09:19:02;98134.19;;;12.86;65.72
63568;BME280;49715;42.386;20.434;2022-10-22T09:24:15;98127.56;;;13.00;65.70
63568;BME280;49715;42.386;20.434;2022-10-22T09:26:43;98132.06;;;13.18;65.79
63568;BME280;49715;42.386;20.434;2022-10-22T09:29:22;98131.44;;;13.33;65.69
63568;BME280;49715;42.386;20.434;2022-10-22T09:31:49;98135.00;;;13.42;65.52
63568;BME280;49715;42.386;20.434;2022-10-22T09:34:20;98141.34;;;13.49;65.13
63568;BME280;49715;42.386;20.434;2022-10-22T09:36:47;98134.06;;;13.51;65.02
63568;BME280;49715;42.386;20.434;2022-10-22T09:39:25;98141.63;;;13.64;64.79
63568;BME280;49715;42.386;20.434;2022-10-22T09:41:51;98132.59;;;13.75;64.92
63568;BME280;49715;42.386;20.434;2022-10-22T09:44:19;98122.97;;;13.91;64.93
63568;BME280;49715;42.386;20.434;2022-10-22T09:46:46;98114.50;;;14.14;64.95
63568;BME280;49715;42.386;20.434;2022-10-22T09:49:15;98116.94;;;14.33;64.68
63568;BME280;49715;42.386;20.434;2022-10-22T09:51:56;98115.59;;;14.55;64.24
63568;BME280;49715;42.386;20.434;2022-10-22T09:54:45;98112.72;;;14.83;64.03
63568;BME280;49715;42.386;20.434;2022-10-22T09:57:20;98104.47;;;15.02;63.59
63568;BME280;49715;42.386;20.434;2022-10-22T09:59:49;98105.53;;;15.26;63.45
63568;BME280;49715;42.386;20.434;2022-10-22T10:02:20;98099.41;;;15.50;62.84
63568;BME280;49715;42.386;20.434;2022-10-22T10:04:50;98105.25;;;15.78;62.49
63568;BME280;49715;42.386;20.434;2022-10-22T10:07:26;98094.94;;;15.99;62.17
63568;BME280;49715;42.386;20.434;2022-10-22T10:09:53;98091.22;;;16.25;61.72
63568;BME280;49715;42.386;20.434;2022-10-22T10:12:45;98078.34;;;16.44;60.55
63568;BME280;49715;42.386;20.434;2022-10-22T10:41:02;98035.72;;;17.84;57.26
63568;BME280;49715;42.386;20.434;2022-10-22T10:43:51;98038.44;;;17.75;56.70
63568;BME280;49715;42.386;20.434;2022-10-22T10:46:27;98036.91;;;17.81;58.01
63568;BME280;49715;42.386;20.434;2022-10-22T10:49:00;98027.72;;;17.84;57.84
63568;BME280;49715;42.386;20.434;2022-10-22T11:07:48;97989.97;;;18.61;55.90
63568;BME280;49715;42.386;20.434;2022-10-22T11:10:37;97982.56;;;18.77;54.69
63568;BME280;49715;42.386;20.434;2022-10-22T11:16:09;97968.53;;;19.33;53.79
63568;BME280;49715;42.386;20.434;2022-10-22T11:18:42;97968.69;;;19.53;53.94
63568;BME280;49715;42.386;20.434;2022-10-22T11:23:45;97949.66;;;19.63;52.94
63568;BME280;49715;42.386;20.434;2022-10-22T11:26:22;97954.19;;;19.62;52.78
63568;BME280;49715;42.386;20.434;2022-10-22T11:28:52;97939.53;;;19.58;52.73
63568;BME280;49715;42.386;20.434;2022-10-22T11:31:22;97930.94;;;19.63;52.29
63568;BME280;49715;42.386;20.434;2022-10-22T11:33:56;97917.22;;;19.72;52.00
63568;BME280;49715;42.386;20.434;2022-10-22T11:36:24;97927.81;;;19.94;51.76
63568;BME280;49715;42.386;20.434;2022-10-22T11:38:52;97917.63;;;20.11;51.60
63568;BME280;49715;42.386;20.434;2022-10-22T11:41:25;97925.53;;;20.39;51.06
63568;BME280;49715;42.386;20.434;2022-10-22T11:44:21;97917.22;;;20.62;49.78
63568;BME280;49715;42.386;20.434;2022-10-22T11:47:08;97907.09;;;20.57;49.26
63568;BME280;49715;42.386;20.434;2022-10-22T11:49:54;97905.88;;;20.66;50.10
63568;BME280;49715;42.386;20.434;2022-10-22T11:52:23;97898.66;;;20.73;49.90
63568;BME280;49715;42.386;20.434;2022-10-22T11:54:54;97890.47;;;20.95;49.69
63568;BME280;49715;42.386;20.434;2022-10-22T11:57:25;97893.78;;;21.10;49.39
63568;BME280;49715;42.386;20.434;2022-10-22T11:59:56;97886.75;;;21.29;49.37
63568;BME280;49715;42.386;20.434;2022-10-22T12:02:44;97886.34;;;21.45;47.91
63568;BME280;49715;42.386;20.434;2022-10-22T12:07:58;97878.28;;;21.58;47.55
63568;BME280;49715;42.386;20.434;2022-10-22T12:10:35;97879.72;;;21.68;48.35
63568;BME280;49715;42.386;20.434;2022-10-22T12:13:27;97875.59;;;21.72;47.33
63568;BME280;49715;42.386;20.434;2022-10-22T12:15:58;97867.66;;;21.90;48.20
63568;BME280;49715;42.386;20.434;2022-10-22T12:18:46;97857.75;;;21.97;47.04
63568;BME280;49715;42.386;20.434;2022-10-22T12:21:14;97865.28;;;22.20;47.42
63568;BME280;49715;42.386;20.434;2022-10-22T12:23:42;97854.72;;;22.32;47.44
63568;BME280;49715;42.386;20.434;2022-10-22T12:26:27;97861.69;;;22.40;45.09
63568;BME280;49715;42.386;20.434;2022-10-22T12:28:59;97867.59;;;22.55;46.53
63568;BME280;49715;42.386;20.434;2022-10-22T12:31:35;97852.00;;;22.70;45.47
63568;BME280;49715;42.386;20.434;2022-10-22T12:34:01;97841.97;;;22.84;46.61
63568;BME280;49715;42.386;20.434;2022-10-22T12:36:35;97839.41;;;22.96;45.77
63568;BME280;49715;42.386;20.434;2022-10-22T12:39:08;97830.44;;;23.08;45.95
63568;BME280;49715;42.386;20.434;2022-10-22T12:41:36;97837.84;;;23.31;45.82
63568;BME280;49715;42.386;20.434;2022-10-22T12:44:05;97832.63;;;23.36;45.42
63568;BME280;49715;42.386;20.434;2022-10-22T12:46:33;97828.22;;;23.24;45.36
63568;BME280;49715;42.386;20.434;2022-10-22T12:49:05;97836.16;;;23.12;45.35
63568;BME280;49715;42.386;20.434;2022-10-22T12:51:35;97833.00;;;22.97;44.87
63568;BME280;49715;42.386;20.434;2022-10-22T12:54:25;97832.53;;;22.75;44.40
63568;BME280;49715;42.386;20.434;2022-10-22T12:56:57;97826.91;;;22.51;45.50
63568;BME280;49715;42.386;20.434;2022-10-22T12:59:37;97822.13;;;22.53;45.56
63568;BME280;49715;42.386;20.434;2022-10-22T13:02:23;97817.25;;;22.69;44.88
63568;BME280;49715;42.386;20.434;2022-10-22T13:05:23;97824.44;;;23.06;43.89
63568;BME280;49715;42.386;20.434;2022-10-22T13:08:00;97821.28;;;23.34;45.04
63568;BME280;49715;42.386;20.434;2022-10-22T13:10:39;97820.78;;;23.62;44.36
63568;BME280;49715;42.386;20.434;2022-10-22T13:13:38;97827.06;;;23.93;43.05
63568;BME280;49715;42.386;20.434;2022-10-22T13:18:42;97827.72;;;24.07;42.49
63568;BME280;49715;42.386;20.434;2022-10-22T13:23:56;97822.50;;;23.75;43.65
63568;BME280;49715;42.386;20.434;2022-10-22T13:26:28;97837.22;;;23.54;43.99
63568;BME280;49715;42.386;20.434;2022-10-22T13:28:57;97849.66;;;23.30;43.56
63568;BME280;49715;42.386;20.434;2022-10-22T13:31:28;97844.69;;;23.09;43.61
63568;BME280;49715;42.386;20.434;2022-10-22T13:34:00;97849.38;;;22.88;43.61
63568;BME280;49715;42.386;20.434;2022-10-22T13:36:30;97842.31;;;22.62;43.60
63568;BME280;49715;42.386;20.434;2022-10-22T13:38:56;97840.84;;;22.35;43.69
63568;BME280;49715;42.386;20.434;2022-10-22T13:41:28;97838.06;;;22.17;44.25
63568;BME280;49715;42.386;20.434;2022-10-22T13:43:59;97841.81;;;22.02;44.47
63568;BME280;49715;42.386;20.434;2022-10-22T13:46:26;97859.41;;;21.92;44.48
63568;BME280;49715;42.386;20.434;2022-10-22T13:48:54;97859.44;;;21.78;44.47
63568;BME280;49715;42.386;20.434;2022-10-22T13:51:31;97865.28;;;21.62;44.59
63568;BME280;49715;42.386;20.434;2022-10-22T13:54:00;97861.81;;;21.48;44.77
63568;BME280;49715;42.386;20.434;2022-10-22T13:56:28;97862.81;;;21.27;44.89
63568;BME280;49715;42.386;20.434;2022-10-22T13:58:55;97862.22;;;21.12;45.24
63568;BME280;49715;42.386;20.434;2022-10-22T14:01:25;97861.19;;;21.00;45.47
63568;BME280;49715;42.386;20.434;2022-10-22T14:03:54;97850.06;;;20.90;45.53
63568;BME280;49715;42.386;20.434;2022-10-22T14:06:24;97848.59;;;20.74;45.80
63568;BME280;49715;42.386;20.434;2022-10-22T14:08:57;97859.50;;;20.52;45.23
63568;BME280;49715;42.386;20.434;2022-10-22T14:11:25;97848.72;;;20.32;46.18
63568;BME280;49715;42.386;20.434;2022-10-22T14:13:56;97862.09;;;20.26;46.45
63568;BME280;49715;42.386;20.434;2022-10-22T14:16:24;97851.34;;;20.06;46.84
63568;BME280;49715;42.386;20.434;2022-10-22T14:18:51;97861.56;;;19.96;47.16
63568;BME280;49715;42.386;20.434;2022-10-22T14:21:18;97852.03;;;19.80;47.44
63568;BME280;49715;42.386;20.434;2022-10-22T14:23:46;97857.75;;;19.70;47.73
63568;BME280;49715;42.386;20.434;2022-10-22T14:26:25;97841.25;;;19.60;48.17
63568;BME280;49715;42.386;20.434;2022-10-22T14:28:55;97825.72;;;19.49;48.29
63568;BME280;49715;42.386;20.434;2022-10-22T14:31:21;97835.78;;;19.47;48.28
63568;BME280;49715;42.386;20.434;2022-10-22T14:33:47;97840.88;;;19.42;48.50
63568;BME280;49715;42.386;20.434;2022-10-22T14:36:16;97838.63;;;19.39;47.90
63568;BME280;49715;42.386;20.434;2022-10-22T14:38:46;97840.66;;;19.37;47.40
63568;BME280;49715;42.386;20.434;2022-10-22T14:41:22;97852.44;;;19.42;47.48
63568;BME280;49715;42.386;20.434;2022-10-22T14:43:52;97857.09;;;19.34;47.97
63568;BME280;49715;42.386;20.434;2022-10-22T14:46:20;97856.81;;;19.22;48.56